Yards, Virginia
Current Conditions -  °F | °C
As of 5:52 PM on Monday 20 Oct 2014 (Local Time) from KBLF Reporting Station
Light Rain Light Rain  
Wind Chill: 54°   Ceiling: 5500
Heat Index: 54°   Visibility: 10mi
Dew Point: 45°   Wind: 3mph
Humidity: 72%   Direction: 210°SSW
Pressure: 29.99"   Gusts: NA
Location:  37.2441°N, 81.3675°W
Report Text: KBLF 202152Z AUTO 21003KT 10SM -RA BKN055 OVC075 12/07 A2999 RMK AO2 SLP144 P0001 T01220072
Loading
Personal Weather Stations






























Interactive Weather Map
Tropical Storm Tracking
New forecast layout! Learn more

10-Day Weather Forecast

Advertisements
Track Severe Weather on mobile